Time;durP1;ratioP1;P1;durP2;ratioP2;P2;SDS_P1;SDS_P2;PMS_P1;PMS_P2;Temp;Humidity;BMP_temperature;BMP_pressure;BME280_temperature;BME280_humidity;BME280_pressure;Samples;Min_cycle;Max_cycle;Signal;HPM_P1;HPM_P2
2022/08/07 00:00:24;;;;;;;4.63;4.18;;;21.70;82.30;;;;;;4997549;28;20038;-61
2022/08/07 00:02:50;;;;;;;7.30;4.10;;;21.70;82.20;;;;;;4995823;28;20030;-61
2022/08/07 00:05:15;;;;;;;8.23;4.30;;;21.70;82.20;;;;;;4997799;28;20050;-61
2022/08/07 00:07:41;;;;;;;4.80;4.40;;;21.70;82.20;;;;;;4995142;28;20046;-61
2022/08/07 00:10:07;;;;;;;4.40;4.00;;;21.70;82.10;;;;;;4996196;28;20350;-62
2022/08/07 00:12:32;;;;;;;5.30;4.43;;;21.60;82.10;;;;;;4997581;28;20034;-61
2022/08/07 00:14:58;;;;;;;5.30;4.15;;;21.60;82.10;;;;;;5000536;28;20033;-61
2022/08/07 00:17:23;;;;;;;5.32;4.32;;;21.60;82.10;;;;;;4996721;28;20066;-61
2022/08/07 00:19:49;;;;;;;4.25;3.85;;;21.60;82.10;;;;;;4997217;28;20029;-61
2022/08/07 00:22:15;;;;;;;5.35;4.85;;;21.60;82.10;;;;;;4995551;28;20065;-61
2022/08/07 00:24:40;;;;;;;4.93;4.53;;;21.60;82.10;;;;;;4994333;28;20113;-61
2022/08/07 00:27:06;;;;;;;4.70;4.25;;;21.60;82.20;;;;;;4995409;28;20057;-61
2022/08/07 00:29:31;;;;;;;4.85;4.05;;;21.60;82.10;;;;;;4996863;28;20033;-61
2022/08/07 00:31:58;;;;;;;4.38;4.00;;;21.50;82.10;;;;;;4995009;28;20092;-61
2022/08/07 00:34:25;;;;;;;5.78;4.15;;;21.50;82.10;;;;;;4994736;28;20026;-61
2022/08/07 00:36:50;;;;;;;4.70;4.13;;;21.50;82.20;;;;;;4996195;28;20179;-61
2022/08/07 00:39:16;;;;;;;9.20;4.35;;;21.50;82.20;;;;;;4980746;28;20042;-61
2022/08/07 00:41:50;;;;;;;8.60;4.07;;;21.60;82.30;;;;;;4997458;28;20077;-61
2022/08/07 00:44:15;;;;;;;9.25;4.75;;;21.50;82.30;;;;;;4995824;28;20034;-61
2022/08/07 00:46:41;;;;;;;6.45;4.38;;;21.50;82.30;;;;;;4979364;28;20041;-61
2022/08/07 00:49:08;;;;;;;8.30;4.00;;;21.50;82.20;;;;;;4996472;28;20030;-61
2022/08/07 00:51:33;;;;;;;5.15;4.65;;;21.50;82.20;;;;;;4996662;28;20014;-61
2022/08/07 00:53:59;;;;;;;6.75;4.15;;;21.50;82.20;;;;;;4998449;28;20103;-61
2022/08/07 00:56:24;;;;;;;9.73;4.43;;;21.50;82.20;;;;;;4984177;28;20033;-61
2022/08/07 00:58:50;;;;;;;7.82;4.53;;;21.50;82.30;;;;;;4995091;28;20875;-61
2022/08/07 01:01:16;;;;;;;8.32;4.22;;;21.50;82.30;;;;;;4995519;28;20119;-61
2022/08/07 01:03:42;;;;;;;5.60;4.22;;;21.40;82.30;;;;;;4997087;28;20048;-61
2022/08/07 01:06:08;;;;;;;6.32;4.20;;;21.40;82.40;;;;;;4996759;28;20125;-61
2022/08/07 01:08:33;;;;;;;7.93;4.20;;;21.40;82.40;;;;;;4977161;28;20258;-61
2022/08/07 01:10:59;;;;;;;5.53;3.95;;;21.40;82.40;;;;;;4999446;28;20440;-61
2022/08/07 01:13:24;;;;;;;7.82;3.97;;;21.40;82.40;;;;;;5012643;28;20662;-61
2022/08/07 01:15:50;;;;;;;6.72;4.53;;;21.40;82.30;;;;;;4998924;28;20046;-61
2022/08/07 01:18:15;;;;;;;5.35;4.20;;;21.40;82.40;;;;;;4997482;28;20301;-61
2022/08/07 01:20:43;;;;;;;5.68;4.00;;;21.40;82.50;;;;;;4998207;28;20077;-61
2022/08/07 01:23:09;;;;;;;6.43;3.78;;;21.40;82.40;;;;;;4976078;28;20297;-61
2022/08/07 01:25:34;;;;;;;10.43;4.10;;;21.40;82.40;;;;;;4997824;28;20026;-61
2022/08/07 01:28:00;;;;;;;5.75;3.85;;;21.40;82.50;;;;;;4996531;28;20042;-62
2022/08/07 01:30:25;;;;;;;5.53;3.50;;;21.30;82.40;;;;;;5001576;28;20048;-61
2022/08/07 01:32:51;;;;;;;10.88;4.22;;;21.30;82.50;;;;;;4983738;28;20073;-61
2022/08/07 01:35:17;;;;;;;5.15;3.88;;;21.30;82.60;;;;;;4999602;28;21552;-61
2022/08/07 01:37:42;;;;;;;5.25;3.88;;;21.30;82.60;;;;;;4998262;28;20053;-61
2022/08/07 01:40:08;;;;;;;5.43;3.97;;;21.30;82.60;;;;;;5014682;28;20038;-61
2022/08/07 01:42:34;;;;;;;6.18;4.05;;;21.30;82.60;;;;;;5014271;28;20037;-61
2022/08/07 01:44:59;;;;;;;4.85;3.92;;;21.20;82.60;;;;;;4996254;28;20034;-61
2022/08/07 01:47:25;;;;;;;7.07;3.88;;;21.30;82.60;;;;;;5031607;28;20065;-61
2022/08/07 01:49:50;;;;;;;5.32;4.00;;;21.20;82.70;;;;;;4984842;28;20481;-61
2022/08/07 01:52:16;;;;;;;4.97;3.55;;;21.20;82.70;;;;;;4998742;28;20238;-61
2022/08/07 01:54:41;;;;;;;5.75;3.97;;;21.20;82.80;;;;;;5016289;28;20030;-61
2022/08/07 01:57:14;;;;;;;8.52;3.88;;;21.20;82.80;;;;;;4983192;28;20501;-61
2022/08/07 01:59:46;;;;;;;4.47;3.67;;;21.20;82.80;;;;;;5000449;28;20026;-61
2022/08/07 02:02:37;;;;;;;6.88;3.67;;;21.20;82.80;;;;;;4997168;28;20428;-61
2022/08/07 02:05:08;;;;;;;5.95;3.83;;;21.20;82.80;;;;;;4998520;28;20041;-61
2022/08/07 02:07:38;;;;;;;4.38;3.55;;;21.10;82.80;;;;;;4995463;28;20069;-61
2022/08/07 02:10:04;;;;;;;5.68;3.47;;;21.10;82.70;;;;;;4982622;28;20502;-61
2022/08/07 02:12:31;;;;;;;4.13;3.72;;;21.10;82.80;;;;;;4996682;28;20088;-61
2022/08/07 02:14:57;;;;;;;3.90;3.42;;;21.10;82.80;;;;;;5000193;28;20032;-61
2022/08/07 02:17:23;;;;;;;4.63;3.70;;;21.10;82.80;;;;;;4980185;28;20034;-61
2022/08/07 02:19:48;;;;;;;5.28;3.53;;;21.10;82.80;;;;;;4994866;28;20049;-61
2022/08/07 02:22:15;;;;;;;5.05;3.70;;;21.10;82.80;;;;;;4997306;28;20045;-61
2022/08/07 02:24:43;;;;;;;3.83;3.45;;;21.00;82.70;;;;;;4997634;28;20113;-61
2022/08/07 02:27:10;;;;;;;5.00;3.70;;;21.00;82.70;;;;;;4981099;28;20068;-61
2022/08/07 02:29:36;;;;;;;3.72;3.42;;;21.00;82.80;;;;;;5009608;28;20159;-61
2022/08/07 02:32:01;;;;;;;4.60;3.72;;;21.00;82.80;;;;;;4994164;28;20029;-61
2022/08/07 02:34:27;;;;;;;6.35;3.70;;;21.00;82.80;;;;;;4979375;28;20026;-65
2022/08/07 02:36:53;;;;;;;3.60;3.30;;;21.00;82.80;;;;;;5000090;28;20033;-61
2022/08/07 02:39:19;;;;;;;4.75;3.72;;;21.00;82.90;;;;;;5000057;28;20030;-61
2022/08/07 02:41:45;;;;;;;3.90;3.30;;;20.90;82.80;;;;;;5012443;28;20046;-61
2022/08/07 02:44:10;;;;;;;4.50;3.85;;;20.90;82.90;;;;;;4996964;28;20029;-61
2022/08/07 02:46:36;;;;;;;6.03;3.53;;;20.90;83.20;;;;;;5013874;28;20129;-62
2022/08/07 02:49:02;;;;;;;3.72;3.35;;;20.90;82.90;;;;;;4997663;28;20112;-61
2022/08/07 02:51:28;;;;;;;6.50;3.78;;;20.90;83.00;;;;;;5016416;28;20064;-62
2022/08/07 02:53:54;;;;;;;5.07;3.67;;;20.90;83.00;;;;;;4997804;28;20026;-62
2022/08/07 02:56:20;;;;;;;4.88;3.70;;;20.90;83.00;;;;;;4979345;28;20390;-62
2022/08/07 02:58:46;;;;;;;3.90;3.42;;;20.90;83.00;;;;;;4996331;28;20014;-65
2022/08/07 03:01:11;;;;;;;4.18;3.78;;;20.80;83.00;;;;;;5014356;28;20556;-62
2022/08/07 03:03:37;;;;;;;6.22;3.47;;;20.80;83.00;;;;;;4994753;28;20034;-62
2022/08/07 03:06:03;;;;;;;3.67;3.38;;;20.90;83.20;;;;;;4997770;28;20032;-62
2022/08/07 03:08:28;;;;;;;4.07;3.58;;;20.90;83.10;;;;;;4998446;28;20034;-62
2022/08/07 03:10:54;;;;;;;4.68;3.60;;;20.90;83.10;;;;;;4981450;28;20052;-61
2022/08/07 03:13:20;;;;;;;8.73;3.72;;;20.80;83.10;;;;;;4995902;28;20148;-61
2022/08/07 03:15:46;;;;;;;4.22;3.55;;;20.80;83.10;;;;;;4999512;28;20028;-61
2022/08/07 03:18:11;;;;;;;3.83;3.45;;;20.80;83.10;;;;;;4977817;28;20599;-62
2022/08/07 03:20:40;;;;;;;4.90;3.60;;;20.80;83.20;;;;;;5013834;28;20057;-61
2022/08/07 03:23:06;;;;;;;4.57;3.42;;;20.80;83.20;;;;;;4998162;28;20041;-61
2022/08/07 03:25:32;;;;;;;4.45;3.60;;;20.80;83.20;;;;;;4997106;28;20045;-61
2022/08/07 03:27:58;;;;;;;4.03;3.50;;;20.80;83.20;;;;;;4963214;28;20058;-61
2022/08/07 03:30:23;;;;;;;4.57;3.80;;;20.80;83.40;;;;;;4996748;28;20030;-61
2022/08/07 03:32:49;;;;;;;4.70;3.30;;;20.80;83.30;;;;;;4997359;28;20037;-61
2022/08/07 03:35:16;;;;;;;3.90;3.60;;;20.70;83.20;;;;;;4980977;28;20030;-61
2022/08/07 03:37:43;;;;;;;3.83;3.30;;;20.80;83.30;;;;;;4994859;28;20043;-61
2022/08/07 03:40:08;;;;;;;4.10;3.55;;;20.70;83.30;;;;;;4994880;28;20037;-61
2022/08/07 03:42:34;;;;;;;3.75;3.40;;;20.70;83.30;;;;;;4997914;28;20074;-61
2022/08/07 03:44:59;;;;;;;4.38;3.03;;;20.70;83.20;;;;;;4996138;28;20060;-61
2022/08/07 03:47:28;;;;;;;4.00;3.58;;;20.70;83.20;;;;;;4996693;28;20038;-61
2022/08/07 03:49:55;;;;;;;4.85;3.63;;;20.70;83.30;;;;;;4979899;28;20081;-61
2022/08/07 03:52:21;;;;;;;5.65;3.42;;;20.70;83.30;;;;;;4997225;28;20102;-61
2022/08/07 03:54:47;;;;;;;4.00;3.22;;;20.70;83.20;;;;;;4995380;28;20446;-61
2022/08/07 03:57:12;;;;;;;3.95;3.65;;;20.70;83.30;;;;;;4996399;28;20405;-61
2022/08/07 03:59:39;;;;;;;3.90;3.42;;;20.70;83.40;;;;;;4998386;28;20538;-62
2022/08/07 04:02:04;;;;;;;4.53;3.30;;;20.70;83.40;;;;;;4996578;28;20030;-61
2022/08/07 04:04:30;;;;;;;3.65;2.90;;;20.70;83.40;;;;;;4994626;28;20267;-61
2022/08/07 04:06:55;;;;;;;3.83;3.38;;;20.70;83.40;;;;;;4998756;28;20088;-61
2022/08/07 04:09:21;;;;;;;3.55;3.20;;;20.70;83.30;;;;;;4995954;28;20095;-61
2022/08/07 04:11:47;;;;;;;4.10;3.35;;;20.70;83.40;;;;;;5012674;28;20143;-61
2022/08/07 04:14:12;;;;;;;3.58;3.28;;;20.70;83.40;;;;;;4980489;28;20292;-61
2022/08/07 04:16:38;;;;;;;4.00;3.42;;;20.70;83.40;;;;;;4997768;28;20109;-61
2022/08/07 04:19:04;;;;;;;3.85;3.38;;;20.70;83.30;;;;;;4980195;28;20497;-61
2022/08/07 04:21:29;;;;;;;3.60;3.30;;;20.60;83.30;;;;;;4997822;28;20412;-61
2022/08/07 04:23:55;;;;;;;3.55;3.25;;;20.60;83.40;;;;;;5011464;28;20029;-61
2022/08/07 04:26:20;;;;;;;3.97;3.00;;;20.70;83.50;;;;;;4996612;28;20096;-61
2022/08/07 04:28:46;;;;;;;6.18;3.78;;;20.70;83.50;;;;;;4980184;28;20030;-61
2022/08/07 04:31:11;;;;;;;4.25;3.60;;;20.60;83.40;;;;;;4996131;28;20041;-61
2022/08/07 04:33:37;;;;;;;3.83;3.53;;;20.70;83.50;;;;;;4995495;28;20022;-61
2022/08/07 04:36:03;;;;;;;3.75;3.45;;;20.60;83.40;;;;;;4982552;28;20096;-62
2022/08/07 04:38:29;;;;;;;4.20;3.47;;;20.60;83.50;;;;;;4977647;28;20026;-61
2022/08/07 04:40:54;;;;;;;5.10;3.75;;;20.70;83.60;;;;;;4995225;28;20045;-61
2022/08/07 04:43:25;;;;;;;4.63;3.40;;;20.60;83.50;;;;;;4990911;28;20034;-61
2022/08/07 04:46:02;;;;;;;3.72;3.35;;;20.60;83.60;;;;;;4984915;28;20030;-61
2022/08/07 04:49:02;;;;;;;3.53;3.28;;;20.70;83.60;;;;;;4997610;28;20357;-61
2022/08/07 04:51:36;;;;;;;4.10;3.53;;;20.60;83.50;;;;;;5001064;28;20393;-61
2022/08/07 04:54:33;;;;;;;3.70;3.10;;;20.70;83.60;;;;;;4999548;28;20243;-61
2022/08/07 04:57:05;;;;;;;4.85;3.72;;;20.60;83.50;;;;;;4963074;28;20806;-61
2022/08/07 04:59:45;;;;;;;4.07;3.63;;;20.60;83.50;;;;;;4997595;28;20038;-61
2022/08/07 05:02:26;;;;;;;3.28;3.03;;;20.60;83.50;;;;;;4984600;28;20545;-61
2022/08/07 05:05:25;;;;;;;3.70;3.40;;;20.60;83.50;;;;;;5001696;28;20113;-61
2022/08/07 05:08:00;;;;;;;4.15;3.55;;;20.60;83.40;;;;;;4978049;28;20057;-61
2022/08/07 05:10:30;;;;;;;3.92;3.53;;;20.60;83.50;;;;;;4999289;28;20038;-61
2022/08/07 05:13:05;;;;;;;4.53;3.75;;;20.60;83.50;;;;;;5031057;28;20022;-61
2022/08/07 05:15:34;;;;;;;4.20;3.80;;;20.70;83.60;;;;;;5000185;28;20495;-61
2022/08/07 05:18:04;;;;;;;4.30;3.35;;;20.60;83.50;;;;;;5012650;28;20476;-61
2022/08/07 05:20:33;;;;;;;5.75;3.53;;;20.60;83.50;;;;;;4998083;28;20468;-61
2022/08/07 05:23:00;;;;;;;3.95;3.65;;;20.70;83.50;;;;;;4982149;28;20353;-61
2022/08/07 05:25:26;;;;;;;6.80;4.00;;;20.60;83.50;;;;;;4981164;28;20577;-61
2022/08/07 05:27:52;;;;;;;3.95;3.25;;;20.70;83.60;;;;;;5013661;28;20031;-61
2022/08/07 05:30:18;;;;;;;5.05;3.95;;;20.70;83.60;;;;;;4999993;28;20053;-61
2022/08/07 05:32:46;;;;;;;3.65;3.30;;;20.60;83.50;;;;;;4999276;28;22003;-61
2022/08/07 05:35:12;;;;;;;3.80;3.45;;;20.60;83.50;;;;;;5000617;28;20018;-61
2022/08/07 05:37:37;;;;;;;3.65;3.22;;;20.60;83.50;;;;;;5016065;28;20103;-61
2022/08/07 05:40:04;;;;;;;4.43;3.42;;;20.70;83.60;;;;;;4981766;28;20038;-61
2022/08/07 05:42:29;;;;;;;3.70;3.40;;;20.60;83.60;;;;;;4999776;28;20061;-62
2022/08/07 05:44:55;;;;;;;3.85;3.55;;;20.60;83.50;;;;;;4999182;28;20021;-61
2022/08/07 05:47:20;;;;;;;3.63;3.30;;;20.70;83.50;;;;;;4982003;28;20127;-61
2022/08/07 05:49:50;;;;;;;3.95;3.60;;;20.60;83.50;;;;;;4998783;28;20143;-61
2022/08/07 05:52:17;;;;;;;3.63;3.33;;;20.70;83.50;;;;;;4997929;28;20030;-61
2022/08/07 05:54:42;;;;;;;3.60;3.30;;;20.60;83.50;;;;;;4990835;28;20479;-61
2022/08/07 05:57:08;;;;;;;3.97;3.58;;;20.60;83.60;;;;;;4997234;28;20033;-61
2022/08/07 05:59:36;;;;;;;3.83;3.40;;;20.70;83.60;;;;;;4980316;28;20633;-61
2022/08/07 06:02:02;;;;;;;4.25;3.42;;;20.70;83.60;;;;;;4982164;28;20034;-61
2022/08/07 06:04:28;;;;;;;3.70;3.40;;;20.70;83.80;;;;;;4996122;28;20181;-61
2022/08/07 06:06:53;;;;;;;3.60;3.30;;;20.70;83.70;;;;;;5013190;28;20646;-61
2022/08/07 06:09:19;;;;;;;4.68;3.85;;;20.70;83.70;;;;;;4999750;28;20042;-61
2022/08/07 06:11:44;;;;;;;3.90;3.50;;;20.70;83.80;;;;;;5010819;28;20413;-61
2022/08/07 06:14:10;;;;;;;4.22;3.83;;;20.70;83.80;;;;;;4997558;28;20470;-61
2022/08/07 06:16:36;;;;;;;4.13;3.80;;;20.70;84.00;;;;;;4980893;28;20065;-61
2022/08/07 06:19:02;;;;;;;4.22;3.83;;;20.70;84.00;;;;;;4983092;28;20106;-61
2022/08/07 06:21:27;;;;;;;4.20;3.90;;;20.70;83.80;;;;;;5000533;28;20113;-61
2022/08/07 06:23:53;;;;;;;5.55;3.85;;;20.70;83.80;;;;;;5014963;28;20029;-61
2022/08/07 06:26:18;;;;;;;3.78;3.42;;;20.70;83.90;;;;;;4966638;28;20123;-61
2022/08/07 06:28:51;;;;;;;4.10;3.70;;;20.70;84.10;;;;;;4996578;28;20476;-61
2022/08/07 06:31:17;;;;;;;3.50;3.20;;;20.70;84.10;;;;;;4998274;28;20057;-61
2022/08/07 06:33:42;;;;;;;3.63;3.33;;;20.70;84.10;;;;;;4998213;28;20120;-61
2022/08/07 06:36:09;;;;;;;4.40;4.00;;;20.70;84.00;;;;;;4981665;28;20100;-61
2022/08/07 06:38:35;;;;;;;4.30;3.90;;;20.40;84.00;;;;;;5011117;28;20136;-61
2022/08/07 06:41:00;;;;;;;6.30;4.30;;;20.70;84.30;;;;;;4964051;28;20156;-61
2022/08/07 06:43:26;;;;;;;4.15;3.80;;;20.70;84.30;;;;;;5012941;28;20057;-61
2022/08/07 06:45:51;;;;;;;5.22;3.95;;;20.70;84.50;;;;;;5013577;28;20101;-62
2022/08/07 06:48:17;;;;;;;4.15;3.67;;;20.70;84.50;;;;;;5012421;28;20026;-61
2022/08/07 06:50:44;;;;;;;4.20;3.35;;;20.70;84.50;;;;;;4998321;28;20089;-61
2022/08/07 06:53:09;;;;;;;4.78;3.85;;;20.70;84.60;;;;;;4981563;28;20555;-61
2022/08/07 06:55:35;;;;;;;7.47;4.28;;;20.70;84.60;;;;;;4997216;28;20533;-61
2022/08/07 06:58:03;;;;;;;4.63;4.00;;;20.70;84.60;;;;;;4996112;28;20382;-61
2022/08/07 07:00:35;;;;;;;4.25;3.85;;;20.70;84.70;;;;;;4999775;28;20128;-61
2022/08/07 07:03:01;;;;;;;3.83;3.60;;;20.70;84.70;;;;;;4980900;28;20163;-61
2022/08/07 07:05:26;;;;;;;4.53;3.72;;;20.70;84.70;;;;;;5015245;28;20025;-61
2022/08/07 07:07:52;;;;;;;5.55;3.90;;;20.70;84.70;;;;;;4982771;28;20498;-61
2022/08/07 07:10:28;;;;;;;5.72;4.13;;;20.70;84.80;;;;;;4992669;28;20033;-61
2022/08/07 07:13:14;;;;;;;4.20;3.80;;;20.70;84.90;;;;;;4996271;28;20470;-61
2022/08/07 07:15:52;;;;;;;4.22;3.90;;;20.70;84.80;;;;;;4998314;28;20063;-61
2022/08/07 07:18:21;;;;;;;5.07;4.32;;;20.70;84.80;;;;;;4995394;28;20334;-61
2022/08/07 07:20:53;;;;;;;4.60;4.20;;;20.70;84.80;;;;;;4997929;28;20022;-61
2022/08/07 07:23:19;;;;;;;5.03;4.25;;;20.70;84.70;;;;;;4997706;28;20153;-61
2022/08/07 07:25:44;;;;;;;4.53;4.07;;;20.80;84.70;;;;;;4983170;28;20370;-61
2022/08/07 07:28:21;;;;;;;4.00;3.70;;;20.80;84.60;;;;;;4981586;28;20042;-61
2022/08/07 07:30:52;;;;;;;6.25;3.45;;;20.70;84.50;;;;;;4977810;28;20022;-62
2022/08/07 07:33:18;;;;;;;4.70;4.28;;;20.80;84.50;;;;;;4994174;28;20167;-61
2022/08/07 07:35:46;;;;;;;9.65;4.00;;;20.80;84.60;;;;;;4998403;28;20030;-61
2022/08/07 07:38:11;;;;;;;4.40;4.00;;;20.80;84.60;;;;;;4993934;28;20565;-62
2022/08/07 07:40:37;;;;;;;4.10;3.72;;;20.80;84.60;;;;;;4991776;28;20109;-61
2022/08/07 07:43:03;;;;;;;3.65;3.35;;;20.80;84.60;;;;;;4978561;28;20042;-61
2022/08/07 07:45:28;;;;;;;4.90;3.83;;;20.80;84.60;;;;;;4993193;28;20025;-61
2022/08/07 07:47:56;;;;;;;3.80;3.47;;;20.80;84.70;;;;;;4996967;28;20039;-61
2022/08/07 07:50:21;;;;;;;3.90;3.50;;;20.90;84.70;;;;;;5014588;28;20030;-61
2022/08/07 07:52:47;;;;;;;5.07;3.70;;;20.80;84.60;;;;;;4998775;28;20145;-61
2022/08/07 07:55:12;;;;;;;4.65;4.25;;;20.90;84.70;;;;;;4981825;28;20627;-61
2022/08/07 07:57:38;;;;;;;4.40;4.00;;;20.80;84.70;;;;;;4978624;28;20032;-61
2022/08/07 08:00:05;;;;;;;4.03;3.58;;;20.80;84.70;;;;;;4997374;28;20117;-61
2022/08/07 08:02:30;;;;;;;4.55;4.15;;;20.80;84.70;;;;;;4996431;28;20097;-61
2022/08/07 08:04:56;;;;;;;6.80;4.78;;;20.90;84.90;;;;;;5011566;28;20120;-61
2022/08/07 08:07:22;;;;;;;7.57;5.40;;;20.90;85.20;;;;;;4979276;28;20057;-62
2022/08/07 08:09:49;;;;;;;7.45;4.32;;;20.80;85.70;;;;;;4995876;28;20461;-61
2022/08/07 08:12:15;;;;;;;6.43;5.57;;;20.90;85.90;;;;;;4993203;28;20046;-61
2022/08/07 08:14:40;;;;;;;5.35;4.85;;;20.80;86.10;;;;;;4994043;28;20030;-61
2022/08/07 08:17:07;;;;;;;5.93;5.32;;;20.80;86.60;;;;;;4992779;28;20018;-61
2022/08/07 08:19:33;;;;;;;6.47;4.75;;;20.80;86.40;;;;;;4982383;28;20444;-61
2022/08/07 08:27:31;;;;;;;5.97;4.82;;;20.80;86.30;;;;;;4986813;28;20795;-61
2022/08/07 08:30:07;;;;;;;20.52;6.25;;;20.90;86.10;;;;;;5002297;28;20386;-61
2022/08/07 08:32:35;;;;;;;8.57;5.05;;;20.80;86.10;;;;;;4989094;28;20828;-61
2022/08/07 08:35:00;;;;;;;16.83;5.35;;;20.90;85.90;;;;;;4985325;28;20032;-62
2022/08/07 08:37:28;;;;;;;21.40;6.10;;;21.00;85.90;;;;;;5003177;28;20026;-62
2022/08/07 08:39:53;;;;;;;19.98;5.85;;;21.00;85.90;;;;;;5001067;28;20121;-62
2022/08/07 08:42:30;;;;;;;18.92;5.93;;;21.00;86.00;;;;;;4983689;28;20144;-61
2022/08/07 08:45:16;;;;;;;31.77;5.95;;;21.00;86.00;;;;;;5000710;28;20080;-61
2022/08/07 08:47:54;;;;;;;25.45;6.00;;;21.10;86.00;;;;;;5002007;28;20782;-61
2022/08/07 08:50:29;;;;;;;21.02;6.57;;;21.10;86.00;;;;;;5002658;28;20038;-61
2022/08/07 08:53:10;;;;;;;30.77;6.65;;;21.10;86.00;;;;;;5002531;28;20615;-61
2022/08/07 08:55:47;;;;;;;43.55;8.25;;;21.10;86.10;;;;;;4980502;28;20046;-61
2022/08/07 08:58:28;;;;;;;35.28;7.68;;;21.20;86.50;;;;;;4984556;28;20067;-62
2022/08/07 09:01:14;;;;;;;95.30;14.60;;;21.20;86.50;;;;;;4999343;28;20030;-61
2022/08/07 09:04:10;;;;;;;71.13;14.17;;;21.20;88.30;;;;;;4983838;28;20022;-62
2022/08/07 09:06:48;;;;;;;47.83;9.82;;;21.30;88.40;;;;;;5000846;28;20064;-62
2022/08/07 09:09:35;;;;;;;54.38;9.10;;;21.30;86.80;;;;;;5000613;28;20065;-63
2022/08/07 09:12:16;;;;;;;78.85;11.35;;;21.30;86.60;;;;;;5001115;28;20050;-61
2022/08/07 09:15:12;;;;;;;74.82;10.52;;;21.40;86.80;;;;;;4988044;28;20037;-62
2022/08/07 09:17:59;;;;;;;57.60;10.15;;;21.40;87.00;;;;;;5001162;28;20029;-62
2022/08/07 09:20:43;;;;;;;52.35;9.40;;;21.40;86.60;;;;;;5000577;28;20026;-61
2022/08/07 09:23:17;;;;;;;69.65;12.02;;;21.40;87.00;;;;;;5005228;28;20029;-62
2022/08/07 09:25:48;;;;;;;71.18;11.70;;;21.50;86.70;;;;;;5000219;28;20026;-62
2022/08/07 09:28:30;;;;;;;78.20;12.85;;;21.50;87.00;;;;;;5001359;28;20033;-62
2022/08/07 09:31:14;;;;;;;73.38;10.98;;;21.50;87.60;;;;;;4977966;28;20559;-62
2022/08/07 09:33:51;;;;;;;92.72;12.27;;;21.60;86.80;;;;;;4997986;28;20038;-62
2022/08/07 09:36:29;;;;;;;65.80;12.18;;;21.60;87.20;;;;;;4997085;28;20474;-62
2022/08/07 09:39:16;;;;;;;72.80;11.85;;;21.60;87.40;;;;;;5002519;28;20473;-62
2022/08/07 09:42:20;;;;;;;62.95;11.43;;;21.70;87.20;;;;;;5003267;28;20045;-61
2022/08/07 09:45:21;;;;;;;79.90;11.52;;;21.70;86.80;;;;;;5016397;28;20050;-62
2022/08/07 09:48:26;;;;;;;82.18;12.13;;;21.80;86.80;;;;;;4992677;28;20294;-62
2022/08/07 09:51:03;;;;;;;163.63;18.60;;;21.80;86.60;;;;;;4983541;28;20049;-62
2022/08/07 09:53:33;;;;;;;88.38;12.20;;;21.80;86.50;;;;;;5001997;28;20025;-60
2022/08/07 09:56:30;;;;;;;85.45;11.77;;;21.90;86.70;;;;;;5002687;28;20025;-62
2022/08/07 09:59:23;;;;;;;98.30;12.48;;;21.90;86.50;;;;;;5000389;28;20057;-60
2022/08/07 10:02:11;;;;;;;79.78;11.25;;;21.90;87.20;;;;;;4985656;28;20022;-60
2022/08/07 10:04:57;;;;;;;79.70;13.10;;;21.90;86.60;;;;;;4988331;28;20038;-59
2022/08/07 10:07:40;;;;;;;100.80;13.77;;;21.90;86.60;;;;;;4992837;28;20042;-60
2022/08/07 10:10:17;;;;;;;106.60;13.75;;;22.00;86.70;;;;;;4999455;28;20038;-60
2022/08/07 10:13:10;;;;;;;94.65;12.95;;;22.00;86.60;;;;;;5000328;28;20160;-62
2022/08/07 10:15:47;;;;;;;90.22;14.90;;;22.10;86.60;;;;;;4996161;28;20073;-60
2022/08/07 10:18:39;;;;;;;97.35;13.02;;;22.10;86.60;;;;;;4992840;28;20057;-62
2022/08/07 10:21:23;;;;;;;70.30;11.52;;;22.10;86.20;;;;;;4990250;28;20505;-62
2022/08/07 10:24:08;;;;;;;144.23;16.77;;;22.20;86.30;;;;;;4994075;28;20586;-62
2022/08/07 10:27:24;;;;;;;120.20;14.73;;;22.20;86.00;;;;;;4998407;28;20025;-60
2022/08/07 10:29:59;;;;;;;83.00;12.90;;;22.20;86.10;;;;;;4983359;28;20045;-59
2022/08/07 10:32:40;;;;;;;89.10;13.07;;;22.20;86.00;;;;;;4997250;28;20030;-62
2022/08/07 10:35:06;;;;;;;98.30;15.35;;;22.30;86.00;;;;;;4992583;28;20124;-61
2022/08/07 10:37:41;;;;;;;98.97;13.10;;;22.30;85.90;;;;;;4997118;28;20087;-60
2022/08/07 10:40:10;;;;;;;;;;;22.30;85.90;;;;;;4997710;28;20132;-61
2022/08/07 10:43:02;;;;;;;119.30;15.00;;;22.30;85.90;;;;;;4998064;28;19960;-61
2022/08/07 10:45:34;;;;;;;87.57;13.55;;;22.30;85.80;;;;;;5002732;28;20065;-60
2022/08/07 10:48:06;;;;;;;81.78;12.27;;;22.30;85.70;;;;;;4982226;28;20347;-62
2022/08/07 10:50:41;;;;;;;87.80;12.43;;;22.40;85.50;;;;;;5001748;28;20088;-62
2022/08/07 10:53:25;;;;;;;97.28;13.90;;;22.40;85.40;;;;;;4981324;28;20034;-62
2022/08/07 10:55:52;;;;;;;108.38;14.90;;;22.40;85.20;;;;;;4982116;28;20464;-62
2022/08/07 10:59:00;;;;;;;106.03;13.93;;;22.50;85.40;;;;;;4992085;28;20124;-62
2022/08/07 11:01:26;;;;;;;105.40;14.45;;;22.50;85.60;;;;;;5013452;28;20084;-62
2022/08/07 11:03:56;;;;;;;117.47;15.77;;;22.60;85.60;;;;;;5000503;28;20381;-62
2022/08/07 11:06:40;;;;;;;115.38;14.57;;;22.50;85.30;;;;;;4987371;28;20112;-61
2022/08/07 11:09:13;;;;;;;104.00;13.57;;;22.40;85.10;;;;;;5031112;28;20528;-62
2022/08/07 11:11:43;;;;;;;97.80;12.82;;;22.60;85.10;;;;;;4984028;28;20068;-62
2022/08/07 11:15:07;;;;;;;111.05;13.75;;;22.70;85.00;;;;;;4993102;28;20069;-62
2022/08/07 11:17:57;;;;;;;117.45;13.88;;;22.70;84.90;;;;;;4993846;28;20085;-61
2022/08/07 11:20:48;;;;;;;94.38;11.38;;;22.70;84.60;;;;;;4996828;28;20038;-61
2022/08/07 11:23:35;;;;;;;99.95;14.27;;;22.80;84.60;;;;;;4975629;28;20473;-61
2022/08/07 11:26:09;;;;;;;114.88;13.60;;;22.80;84.30;;;;;;4997904;28;20037;-61
2022/08/07 11:28:38;;;;;;;90.35;12.43;;;22.80;84.70;;;;;;4984300;28;20026;-61
2022/08/07 11:31:03;;;;;;;90.15;11.63;;;22.80;84.10;;;;;;5014536;28;20022;-62
2022/08/07 11:33:50;;;;;;;76.20;11.82;;;22.90;84.00;;;;;;5001536;28;20030;-62
2022/08/07 11:36:35;;;;;;;75.65;12.32;;;22.90;83.60;;;;;;4998737;28;20077;-62
2022/08/07 11:39:29;;;;;;;81.55;12.57;;;22.90;83.30;;;;;;4979188;28;20321;-62
2022/08/07 11:42:01;;;;;;;79.82;11.95;;;22.90;83.30;;;;;;4990385;28;20053;-62
2022/08/07 11:44:36;;;;;;;78.55;10.88;;;23.00;83.20;;;;;;4996188;28;20064;-62
2022/08/07 11:47:12;;;;;;;77.47;10.60;;;23.00;83.10;;;;;;4982466;28;20053;-62
2022/08/07 11:50:15;;;;;;;102.38;13.45;;;23.10;83.00;;;;;;4997575;28;20049;-63
2022/08/07 11:53:08;;;;;;;69.38;9.50;;;23.10;83.10;;;;;;4995277;28;20038;-60
2022/08/07 11:55:52;;;;;;;73.95;11.02;;;23.10;82.70;;;;;;4996353;28;20127;-60
2022/08/07 11:58:23;;;;;;;72.45;10.45;;;23.20;82.60;;;;;;4986365;28;20037;-60
2022/08/07 12:01:08;;;;;;;67.80;9.23;;;23.20;82.60;;;;;;4995040;28;20026;-60
2022/08/07 12:03:34;;;;;;;72.97;10.10;;;23.30;82.30;;;;;;4992206;28;21014;-60
2022/08/07 12:06:18;;;;;;;65.93;9.50;;;23.30;82.10;;;;;;4995047;28;20038;-60
2022/08/07 12:09:15;;;;;;;68.75;8.77;;;23.40;82.10;;;;;;4996627;28;20029;-60
2022/08/07 12:12:04;;;;;;;70.57;9.90;;;23.40;82.00;;;;;;4992034;28;20050;-62
2022/08/07 12:14:31;;;;;;;87.65;11.23;;;23.40;81.70;;;;;;4984201;28;20042;-61
2022/08/07 12:17:00;;;;;;;91.75;12.27;;;23.50;81.50;;;;;;4964046;28;20489;-59
2022/08/07 12:19:35;;;;;;;65.95;9.68;;;23.50;81.30;;;;;;4994633;28;20477;-60
2022/08/07 12:22:48;;;;;;;77.25;10.23;;;23.50;81.20;;;;;;4997407;28;20026;-60
2022/08/07 12:25:54;;;;;;;85.40;9.88;;;23.60;81.00;;;;;;4977798;28;20084;-61
2022/08/07 12:28:42;;;;;;;73.63;10.65;;;23.60;80.90;;;;;;5004817;28;20720;-60
2022/08/07 12:31:12;;;;;;;107.35;13.85;;;23.70;80.70;;;;;;4992435;28;20030;-60
2022/08/07 12:33:37;;;;;;;87.90;11.90;;;23.70;81.10;;;;;;4970611;28;20066;-61
2022/08/07 12:36:03;;;;;;;92.97;11.88;;;23.70;80.80;;;;;;4994722;28;20034;-60
2022/08/07 12:38:29;;;;;;;101.75;13.70;;;23.70;80.60;;;;;;4994814;28;20040;-59
2022/08/07 12:40:54;;;;;;;96.35;12.77;;;23.80;81.10;;;;;;4976677;28;20151;-60
2022/08/07 12:43:23;;;;;;;93.75;11.15;;;23.90;80.70;;;;;;4992180;28;21075;-60
2022/08/07 12:45:53;;;;;;;121.20;13.30;;;23.90;80.60;;;;;;4995790;28;20069;-60
2022/08/07 12:48:24;;;;;;;124.15;14.82;;;23.90;80.60;;;;;;4990771;28;20101;-60
2022/08/07 12:51:12;;;;;;;144.30;15.98;;;24.00;80.30;;;;;;4991247;28;20042;-61
2022/08/07 12:53:57;;;;;;;133.95;16.10;;;24.00;80.50;;;;;;5023372;28;20061;-60
2022/08/07 12:56:38;;;;;;;141.60;16.73;;;24.00;80.40;;;;;;5009715;28;20643;-61
2022/08/07 12:59:04;;;;;;;125.20;14.35;;;24.10;80.30;;;;;;5005934;28;20257;-60
2022/08/07 13:01:52;;;;;;;118.95;15.30;;;24.10;80.40;;;;;;4996219;28;21264;-61
2022/08/07 13:04:44;;;;;;;147.65;16.05;;;24.20;80.40;;;;;;4996517;28;20101;-60
2022/08/07 13:07:48;;;;;;;187.27;21.90;;;24.20;80.20;;;;;;5001677;28;20034;-60
2022/08/07 13:10:30;;;;;;;122.45;15.82;;;24.20;80.00;;;;;;4998019;28;20042;-60